Davisburg, Kentucky
Current Conditions -  °F | °C
As of 5:15 PM on Sunday 25 Jan 2015 (Local Time) from K1A6 Reporting Station
Drizzle Drizzle  
Wind Chill: 48°   Ceiling: 11000
Heat Index: 48°   Visibility: 10mi
Dew Point: 35°   Wind: 3mph
Humidity: 61%   Direction: 350°N
Pressure: 29.69"   Gusts: NA
Location:  36.7417°N, 83.6911°W
Report Text: K1A6 252215Z AUTO 35003KT 10SM -DZ SCT060 SCT070 OVC110 09/02 A2969 RMK AO2 T00880016
Loading
Personal Weather Stations






























Interactive Weather Map New forecast layout! Learn more

10-Day Weather Forecast

Advertisements
Track Severe Weather on mobile